createdAt,value
2022-09-24T00:48:25.620Z,9.10
2022-09-24T00:51:18.699Z,8.02
2022-09-24T00:54:09.688Z,7.53
2022-09-24T00:56:59.572Z,7.80
2022-09-24T00:59:45.597Z,7.63
2022-09-24T01:48:09.780Z,8.60
2022-09-24T01:51:02.398Z,7.45
2022-09-24T01:53:54.519Z,7.60
2022-09-24T01:56:51.114Z,7.53
2022-09-24T01:59:42.007Z,6.95
2022-09-24T02:45:32.947Z,7.40
2022-09-24T02:52:22.899Z,6.43
2022-09-24T02:55:08.265Z,7.45
2022-09-24T02:57:53.919Z,6.40
2022-09-24T03:46:30.266Z,7.50
2022-09-24T03:49:16.115Z,6.63
2022-09-24T03:52:01.792Z,8.32
2022-09-24T03:54:47.390Z,6.90
2022-09-24T03:57:32.772Z,6.18
2022-09-24T04:00:18.179Z,6.10
2022-09-24T04:32:15.456Z,6.38
2022-09-24T04:35:05.365Z,6.03
2022-09-24T04:37:52.885Z,5.93
2022-09-24T04:40:39.839Z,6.43
2022-09-24T04:43:25.127Z,5.40
2022-09-24T04:46:10.120Z,5.93
2022-09-24T04:48:55.443Z,6.60
2022-09-24T04:51:40.690Z,6.32
2022-09-24T04:54:25.648Z,6.22
2022-09-24T04:57:11.367Z,5.95
2022-09-24T04:59:56.363Z,5.85
2022-09-24T05:02:42.610Z,6.27
2022-09-24T05:05:28.167Z,5.63
2022-09-24T05:08:14.085Z,5.38
2022-09-24T05:11:00.004Z,5.65
2022-09-24T05:13:45.251Z,5.75
2022-09-24T05:16:31.344Z,5.10
2022-09-24T05:19:16.621Z,5.47
2022-09-24T05:22:01.934Z,5.80
2022-09-24T05:24:47.086Z,5.90
2022-09-24T05:27:32.028Z,5.53
2022-09-24T05:30:18.875Z,5.93
2022-09-24T05:33:04.128Z,6.65
2022-09-24T05:35:57.385Z,5.88
2022-09-24T05:38:42.558Z,5.07
2022-09-24T05:41:27.566Z,6.45
2022-09-24T05:44:12.762Z,6.60
2022-09-24T05:46:58.230Z,5.00
2022-09-24T05:49:43.477Z,5.97
2022-09-24T05:52:28.545Z,6.38
2022-09-24T05:55:13.454Z,5.38
2022-09-24T05:58:10.262Z,5.30
2022-09-24T06:00:55.378Z,4.88
2022-09-24T06:03:40.236Z,4.82
2022-09-24T06:06:26.241Z,5.38
2022-09-24T06:09:11.340Z,5.25
2022-09-24T06:11:56.882Z,4.77
2022-09-24T06:14:42.583Z,5.30
2022-09-24T06:17:28.578Z,5.07
2022-09-24T06:20:13.880Z,5.75
2022-09-24T06:22:58.956Z,5.40
2022-09-24T06:25:49.475Z,6.00
2022-09-24T06:28:34.981Z,6.43
2022-09-24T06:31:20.475Z,5.07
2022-09-24T06:34:05.943Z,5.55
2022-09-24T06:36:55.007Z,4.78
2022-09-24T06:39:40.241Z,6.43
2022-09-24T06:42:25.240Z,5.45
2022-09-24T06:45:10.704Z,5.68
2022-09-24T06:47:58.069Z,5.72
2022-09-24T06:50:45.375Z,5.70
2022-09-24T06:53:30.770Z,4.97
2022-09-24T06:56:16.017Z,8.85
2022-09-24T06:59:00.891Z,9.25
2022-09-24T07:01:45.865Z,8.30
2022-09-24T07:04:31.311Z,10.30
2022-09-24T07:07:33.242Z,8.70
2022-09-24T07:10:18.343Z,10.07
2022-09-24T07:13:03.692Z,9.73
2022-09-24T07:15:52.841Z,10.93
2022-09-24T07:18:38.712Z,10.85
2022-09-24T07:21:23.947Z,10.60
2022-09-24T07:24:09.187Z,8.13
2022-09-24T07:26:54.426Z,8.30
2022-09-24T07:29:39.811Z,8.20
2022-09-24T07:35:36.826Z,10.67
2022-09-24T07:38:22.381Z,7.60
2022-09-24T07:41:09.432Z,8.57
2022-09-24T07:43:56.338Z,7.05
2022-09-24T07:46:41.509Z,6.80
2022-09-24T07:49:28.985Z,6.90
2022-09-24T07:52:14.084Z,8.07
2022-09-24T07:54:59.063Z,7.82
2022-09-24T07:57:49.463Z,6.90
2022-09-24T08:00:34.560Z,7.85
2022-09-24T08:03:20.234Z,9.40
2022-09-24T08:06:05.449Z,9.90
2022-09-24T08:08:52.989Z,10.23
2022-09-24T08:11:39.238Z,9.98
2022-09-24T08:14:24.490Z,9.63
2022-09-24T08:17:09.432Z,9.70
2022-09-24T08:19:56.883Z,9.57
2022-09-24T08:22:42.067Z,8.80
2022-09-24T08:25:26.843Z,11.52
2022-09-24T08:28:12.515Z,12.77
2022-09-24T08:31:03.560Z,9.63
2022-09-24T08:33:50.797Z,9.73
2022-09-24T08:36:38.386Z,9.32
2022-09-24T08:39:29.501Z,9.63
2022-09-24T08:43:10.170Z,10.70
2022-09-24T08:46:21.203Z,10.87
2022-09-24T08:49:11.722Z,10.13
2022-09-24T08:52:06.658Z,10.43
2022-09-24T08:54:54.232Z,10.63
2022-09-24T08:57:49.059Z,9.10
2022-09-24T09:00:42.697Z,10.30
2022-09-24T09:03:45.909Z,8.10
2022-09-24T09:06:40.735Z,10.70
2022-09-24T09:09:33.578Z,12.43
2022-09-24T09:12:42.007Z,9.13
2022-09-24T09:15:34.836Z,10.30
2022-09-24T09:18:28.659Z,7.38
2022-09-24T09:21:41.641Z,8.70
2022-09-24T09:24:44.880Z,11.20
2022-09-24T09:27:30.889Z,9.15
2022-09-24T09:30:21.792Z,11.53
2022-09-24T09:33:35.403Z,10.02
2022-09-24T09:36:46.942Z,8.63
2022-09-24T09:39:47.252Z,10.05
2022-09-24T09:42:36.715Z,8.73
2022-09-24T09:45:39.458Z,9.60
2022-09-24T09:48:31.011Z,10.60
2022-09-24T09:51:22.956Z,11.18
2022-09-24T09:54:09.179Z,8.75
2022-09-24T09:56:54.237Z,7.70
2022-09-24T09:59:39.444Z,9.10
2022-09-24T10:02:28.298Z,10.65
2022-09-24T10:05:26.968Z,9.10
2022-09-24T10:08:31.016Z,9.02
2022-09-24T10:11:17.059Z,12.45
2022-09-24T10:14:04.254Z,15.03
2022-09-24T10:16:54.249Z,16.55
2022-09-24T10:19:44.078Z,14.30
2022-09-24T10:22:30.214Z,12.95
2022-09-24T10:25:28.357Z,10.18
2022-09-24T10:28:38.283Z,12.70
2022-09-24T10:31:30.727Z,11.48
2022-09-24T10:34:28.121Z,11.65
2022-09-24T10:37:15.953Z,9.73
2022-09-24T10:40:11.723Z,11.65
2022-09-24T10:43:01.718Z,11.93
2022-09-24T10:46:09.477Z,13.05
2022-09-24T10:49:19.364Z,11.60
2022-09-24T10:52:24.523Z,9.40
2022-09-24T10:55:17.849Z,10.68
2022-09-24T10:58:25.955Z,9.03
2022-09-24T11:01:22.699Z,10.00
2022-09-24T11:04:26.431Z,10.05
2022-09-24T11:07:45.047Z,10.57
2022-09-24T11:10:42.462Z,9.27
2022-09-24T11:13:50.468Z,10.47
2022-09-24T11:16:47.406Z,12.13
2022-09-24T11:20:23.925Z,10.57
2022-09-24T11:23:46.083Z,12.88
2022-09-24T11:27:02.433Z,9.73
2022-09-24T11:30:09.226Z,8.33
2022-09-24T11:33:15.677Z,8.65
2022-09-24T11:36:17.186Z,8.93
2022-09-24T11:39:16.850Z,9.68
2022-09-24T11:42:19.691Z,8.55
2022-09-24T11:45:22.917Z,11.27
2022-09-24T11:48:27.657Z,8.48
2022-09-24T11:51:26.689Z,7.93
2022-09-24T11:54:24.135Z,11.00
2022-09-24T11:57:19.550Z,9.80
2022-09-24T12:00:12.242Z,12.27
2022-09-24T12:03:08.299Z,8.65
2022-09-24T12:06:05.661Z,8.88
2022-09-24T12:09:01.302Z,8.35
2022-09-24T12:11:51.091Z,9.35
2022-09-24T12:14:58.018Z,8.87
2022-09-24T12:17:50.162Z,9.38
2022-09-24T12:20:48.395Z,7.05
2022-09-24T12:23:39.474Z,8.40
2022-09-24T12:26:26.020Z,7.68
2022-09-24T12:29:45.141Z,8.03
2022-09-24T12:32:56.048Z,8.65
2022-09-24T12:35:57.707Z,8.48
2022-09-24T12:38:54.205Z,8.63
2022-09-24T12:41:42.933Z,7.63
2022-09-24T12:44:36.979Z,7.60
2022-09-24T12:47:25.002Z,9.73
2022-09-24T12:50:20.953Z,7.00
2022-09-24T12:53:24.731Z,7.93
2022-09-24T12:56:11.261Z,8.57
2022-09-24T12:58:57.091Z,6.97
2022-09-24T13:01:42.083Z,7.50
2022-09-24T13:04:29.341Z,7.60
2022-09-24T13:07:36.350Z,6.70
2022-09-24T13:10:26.376Z,8.75
2022-09-24T13:13:27.230Z,7.33
2022-09-24T13:16:19.487Z,6.05
2022-09-24T13:19:07.829Z,7.00
2022-09-24T13:21:58.912Z,6.57
2022-09-24T13:24:52.897Z,7.28
2022-09-24T13:27:41.739Z,7.87
2022-09-24T13:30:30.246Z,7.30
2022-09-24T13:33:23.988Z,7.97
2022-09-24T13:36:34.257Z,7.10
2022-09-24T13:39:29.626Z,6.45
2022-09-24T13:42:20.445Z,6.53
2022-09-24T13:45:11.123Z,7.07
2022-09-24T13:48:18.254Z,6.72
2022-09-24T13:51:06.679Z,7.68
2022-09-24T13:54:05.861Z,7.60
2022-09-24T13:57:10.966Z,6.33
2022-09-24T14:00:16.543Z,7.18
2022-09-24T14:03:25.823Z,6.90
2022-09-24T14:06:12.957Z,6.22
2022-09-24T14:08:58.358Z,7.15
2022-09-24T14:11:52.064Z,6.53
2022-09-24T14:14:36.774Z,5.75
2022-09-24T14:17:21.810Z,7.00
2022-09-24T14:20:12.852Z,6.63
2022-09-24T14:22:57.843Z,6.25
2022-09-24T14:25:43.266Z,6.57
2022-09-24T14:28:32.658Z,6.43
2022-09-24T14:31:18.262Z,6.38
2022-09-24T14:34:05.230Z,5.90
2022-09-24T14:36:51.161Z,6.70
2022-09-24T14:39:42.039Z,6.27
2022-09-24T14:42:38.566Z,6.18
2022-09-24T14:45:29.563Z,5.38
2022-09-24T14:48:25.699Z,7.15
2022-09-24T14:51:31.139Z,5.95
2022-09-24T14:54:36.058Z,6.77
2022-09-24T14:57:20.885Z,5.68
2022-09-24T15:00:49.680Z,6.75
2022-09-24T15:03:58.630Z,6.10
2022-09-24T15:06:47.490Z,6.60
2022-09-24T15:09:32.520Z,6.87
2022-09-24T15:12:30.635Z,5.57
2022-09-24T15:15:19.480Z,7.15
2022-09-24T15:18:10.568Z,6.03
2022-09-24T15:20:58.081Z,6.80
2022-09-24T15:23:43.518Z,5.97
2022-09-24T15:26:31.017Z,6.13
2022-09-24T15:29:23.882Z,6.47
2022-09-24T15:32:18.223Z,6.05
2022-09-24T15:35:09.279Z,5.80
2022-09-24T15:37:54.119Z,6.13
2022-09-24T15:40:40.620Z,5.63
2022-09-24T15:43:26.954Z,6.38
2022-09-24T15:46:12.225Z,5.60
2022-09-24T15:48:57.553Z,6.05
2022-09-24T15:51:42.311Z,5.53
2022-09-24T15:54:27.515Z,6.22
2022-09-24T15:57:12.688Z,5.70
2022-09-24T15:59:57.786Z,5.45
2022-09-24T16:02:46.303Z,5.63
2022-09-24T16:05:31.176Z,5.53
2022-09-24T16:08:16.556Z,5.43
2022-09-24T16:11:03.178Z,5.60
2022-09-24T16:13:50.454Z,5.93
2022-09-24T16:16:38.450Z,6.70
2022-09-24T16:19:23.585Z,5.50
2022-09-24T16:22:08.578Z,5.30
2022-09-24T16:24:54.167Z,5.45
2022-09-24T16:27:40.493Z,7.55
2022-09-24T16:30:25.473Z,6.88
2022-09-24T16:33:10.648Z,4.80
2022-09-24T16:35:55.792Z,5.85
2022-09-24T16:38:40.968Z,5.97
2022-09-24T16:41:26.303Z,7.75
2022-09-24T16:44:15.119Z,6.38
2022-09-24T16:47:00.117Z,5.93
2022-09-24T16:49:45.796Z,8.00
2022-09-24T16:52:32.001Z,5.93
2022-09-24T16:55:17.795Z,6.07
2022-09-24T16:58:03.041Z,5.80
2022-09-24T17:00:48.991Z,5.70
2022-09-24T17:03:34.732Z,5.68
2022-09-24T17:06:26.969Z,6.05
2022-09-24T17:09:30.430Z,7.40
2022-09-24T17:12:15.624Z,6.93
2022-09-24T17:15:02.051Z,6.20
2022-09-24T17:17:50.306Z,6.30
2022-09-24T17:20:38.002Z,7.38
2022-09-24T17:23:23.424Z,6.30
2022-09-24T17:26:14.134Z,7.45
2022-09-24T17:28:59.479Z,6.67
2022-09-24T17:31:44.864Z,7.03
2022-09-24T17:34:30.025Z,9.32
2022-09-24T17:37:15.178Z,9.32
2022-09-24T17:40:00.548Z,10.30
2022-09-24T17:42:47.177Z,13.40
2022-09-24T17:45:31.931Z,7.65
2022-09-24T17:48:17.026Z,7.78
2022-09-24T17:51:07.515Z,9.40
2022-09-24T17:53:54.371Z,9.73
2022-09-24T17:56:40.462Z,11.07
2022-09-24T17:59:26.921Z,33.72
2022-09-24T18:02:12.580Z,37.65
2022-09-24T18:04:57.905Z,42.00
2022-09-24T18:07:42.833Z,38.78
2022-09-24T18:10:27.885Z,35.97
2022-09-24T18:13:14.162Z,39.83
2022-09-24T18:16:02.718Z,41.03
2022-09-24T18:18:50.742Z,35.60
2022-09-24T18:21:36.003Z,38.05
2022-09-24T18:24:21.097Z,35.07
2022-09-24T18:27:06.254Z,41.35
2022-09-24T18:29:52.204Z,41.35
2022-09-24T18:32:39.452Z,43.28
2022-09-24T18:35:24.633Z,44.17
2022-09-24T18:38:09.592Z,42.30
2022-09-24T18:40:54.643Z,39.70
2022-09-24T18:43:40.558Z,41.28
2022-09-24T18:46:28.976Z,44.58
2022-09-24T18:49:14.582Z,44.20
2022-09-24T18:51:59.470Z,38.70
2022-09-24T18:54:44.506Z,39.65
2022-09-24T18:57:29.588Z,45.33
2022-09-24T19:00:34.653Z,40.42
2022-09-24T19:03:22.019Z,39.63
2022-09-24T19:06:08.235Z,42.87
2022-09-24T19:08:56.140Z,45.38
2022-09-24T19:11:42.025Z,44.42
2022-09-24T19:14:27.597Z,42.33
2022-09-24T19:17:12.720Z,43.55
2022-09-24T19:19:59.086Z,44.30
2022-09-24T19:22:49.627Z,39.15
2022-09-24T19:25:36.886Z,47.50
2022-09-24T19:28:21.956Z,40.05
2022-09-24T19:31:16.541Z,46.30
2022-09-24T19:34:05.733Z,44.73
2022-09-24T19:36:50.737Z,45.67
2022-09-24T19:39:35.771Z,55.45
2022-09-24T19:42:21.146Z,53.92
2022-09-24T19:45:06.641Z,59.45
2022-09-24T19:47:51.943Z,65.33
2022-09-24T19:50:37.718Z,68.85
2022-09-24T19:53:22.746Z,75.38
2022-09-24T19:56:11.048Z,78.07
2022-09-24T19:58:58.041Z,80.43
2022-09-24T20:01:43.102Z,80.83
2022-09-24T20:04:28.436Z,83.47
2022-09-24T20:07:14.138Z,84.88
2022-09-24T20:10:00.518Z,89.82
2022-09-24T20:12:49.008Z,96.28
2022-09-24T20:15:34.055Z,97.93
2022-09-24T20:18:18.990Z,100.18
2022-09-24T20:21:05.295Z,105.22
2022-09-24T20:23:53.646Z,105.63
2022-09-24T20:26:57.593Z,101.93
2022-09-24T20:29:43.602Z,98.60
2022-09-24T20:32:29.854Z,98.68
2022-09-24T20:35:15.911Z,96.38
2022-09-24T20:38:01.719Z,98.32
2022-09-24T20:40:46.829Z,96.70
2022-09-24T20:43:32.597Z,94.97
2022-09-24T20:46:21.803Z,95.35
2022-09-24T20:49:07.268Z,92.65
2022-09-24T20:51:57.122Z,91.40
2022-09-24T20:54:42.705Z,89.72
2022-09-24T20:57:28.912Z,86.27
2022-09-24T21:00:15.089Z,84.38
2022-09-24T21:03:00.124Z,85.53
2022-09-24T21:05:45.618Z,86.10
2022-09-24T21:08:38.910Z,84.35
2022-09-24T21:11:29.328Z,80.97
2022-09-24T21:14:14.733Z,80.40
2022-09-24T21:16:59.736Z,78.88
2022-09-24T21:19:44.812Z,78.25
2022-09-24T21:22:30.972Z,79.47
2022-09-24T21:25:30.412Z,78.90
2022-09-24T21:28:21.528Z,76.55
2022-09-24T21:31:07.447Z,76.25
2022-09-24T21:33:53.276Z,78.50
2022-09-24T21:36:44.614Z,77.72
2022-09-24T21:39:30.043Z,74.23
2022-09-24T21:42:16.863Z,75.03
2022-09-24T21:45:03.075Z,72.07
2022-09-24T21:47:48.892Z,73.10
2022-09-24T21:50:39.596Z,72.45
2022-09-24T21:53:25.331Z,71.97
2022-09-24T21:56:14.691Z,72.32
2022-09-24T21:59:00.294Z,71.45
2022-09-24T22:01:46.096Z,66.43
2022-09-24T22:04:34.025Z,67.82
2022-09-24T22:07:19.299Z,66.17
2022-09-24T22:10:05.233Z,64.95
2022-09-24T22:12:51.011Z,65.78
2022-09-24T22:15:36.145Z,63.33
2022-09-24T22:18:21.279Z,66.30
2022-09-24T22:21:11.804Z,63.23
2022-09-24T22:23:57.031Z,62.20
2022-09-24T22:26:42.212Z,62.45
2022-09-24T22:29:27.585Z,62.80
2022-09-24T22:32:12.716Z,60.03
2022-09-24T22:35:16.263Z,59.57
2022-09-24T22:38:02.216Z,60.55
2022-09-24T22:40:47.886Z,60.85
2022-09-24T22:43:33.617Z,61.30
2022-09-24T22:46:19.575Z,60.40
2022-09-24T22:49:05.800Z,59.87
2022-09-24T22:51:51.280Z,57.25
2022-09-24T22:54:36.095Z,58.30
2022-09-24T22:57:21.174Z,57.65
2022-09-24T23:00:07.001Z,58.17
2022-09-24T23:45:26.304Z,54.08
2022-09-24T23:48:12.104Z,54.72
2022-09-24T23:50:58.433Z,52.90
2022-09-24T23:53:44.002Z,54.35
2022-09-24T23:56:29.570Z,55.42
2022-09-24T23:59:15.202Z,53.80
